createdAt,value
2022-08-25T00:00:24.283Z,47.78
2022-08-25T00:02:55.268Z,45.83
2022-08-25T00:05:32.108Z,44.33
2022-08-25T00:08:06.678Z,44.92
2022-08-25T00:10:42.534Z,50.22
2022-08-25T00:13:18.158Z,42.67
2022-08-25T00:15:48.480Z,46.65
2022-08-25T00:18:19.849Z,47.20
2022-08-25T00:20:50.170Z,44.40
2022-08-25T00:23:20.913Z,43.88
2022-08-25T00:25:51.021Z,41.95
2022-08-25T00:28:23.250Z,47.80
2022-08-25T00:30:53.960Z,45.35
2022-08-25T00:33:23.887Z,49.10
2022-08-25T00:35:54.809Z,44.80
2022-08-25T00:38:24.840Z,49.50
2022-08-25T00:41:08.341Z,44.45
2022-08-25T00:43:52.100Z,42.75
2022-08-25T00:46:25.696Z,48.80
2022-08-25T00:49:03.488Z,46.55
2022-08-25T00:51:40.275Z,44.55
2022-08-25T00:54:13.808Z,41.40
2022-08-25T00:56:45.406Z,46.25
2022-08-25T00:59:19.312Z,44.20
2022-08-25T01:01:49.530Z,46.20
2022-08-25T01:04:19.863Z,48.28
2022-08-25T01:06:51.943Z,54.53
2022-08-25T01:09:22.766Z,43.47
2022-08-25T01:11:52.932Z,46.13
2022-08-25T01:14:27.946Z,52.30
2022-08-25T01:17:00.668Z,50.83
2022-08-25T01:19:36.451Z,49.40
2022-08-25T01:22:08.990Z,47.75
2022-08-25T01:24:46.954Z,48.37
2022-08-25T01:27:17.919Z,51.50
2022-08-25T01:29:48.118Z,48.70
2022-08-25T01:32:18.341Z,52.47
2022-08-25T01:34:51.959Z,52.47
2022-08-25T01:37:24.724Z,52.55
2022-08-25T01:39:54.925Z,39.33
2022-08-25T01:42:41.641Z,49.03
2022-08-25T01:45:13.130Z,54.22
2022-08-25T01:47:43.016Z,50.95
2022-08-25T01:50:13.443Z,53.80
2022-08-25T01:52:57.300Z,50.33
2022-08-25T01:55:29.561Z,51.78
2022-08-25T01:58:01.594Z,55.50
2022-08-25T02:00:35.018Z,55.70
2022-08-25T02:03:05.008Z,52.63
2022-08-25T02:05:41.602Z,52.58
2022-08-25T02:08:15.938Z,51.08
2022-08-25T02:10:45.735Z,51.83
2022-08-25T02:13:15.993Z,54.33
2022-08-25T02:15:54.166Z,53.85
2022-08-25T02:18:28.662Z,52.20
2022-08-25T02:21:01.914Z,50.08
2022-08-25T02:23:40.298Z,50.10
2022-08-25T02:26:10.636Z,46.95
2022-08-25T02:28:41.926Z,49.67
2022-08-25T02:31:11.943Z,49.53
2022-08-25T02:33:42.092Z,48.95
2022-08-25T02:36:14.880Z,48.72
2022-08-25T02:38:48.738Z,47.53
2022-08-25T02:41:21.089Z,51.47
2022-08-25T02:43:52.331Z,50.03
2022-08-25T02:46:29.017Z,48.90
2022-08-25T02:48:58.987Z,47.38
2022-08-25T02:51:36.840Z,47.10
2022-08-25T02:54:10.305Z,52.92
2022-08-25T02:56:41.352Z,48.97
2022-08-25T02:59:11.605Z,49.33
2022-08-25T03:01:41.472Z,45.38
2022-08-25T03:04:14.489Z,49.95
2022-08-25T03:06:44.414Z,47.38
2022-08-25T03:09:19.350Z,46.58
2022-08-25T03:11:52.526Z,39.38
2022-08-25T03:16:52.370Z,47.08
2022-08-25T03:19:28.838Z,40.65
2022-08-25T03:22:03.090Z,41.50
2022-08-25T03:24:39.362Z,41.97
2022-08-25T03:27:11.955Z,43.85
2022-08-25T03:29:43.424Z,41.03
2022-08-25T03:32:13.385Z,37.63
2022-08-25T03:34:44.139Z,39.47
2022-08-25T03:37:14.049Z,39.30
2022-08-25T03:39:46.800Z,35.03
2022-08-25T03:42:24.957Z,34.92
2022-08-25T03:44:54.800Z,31.83
2022-08-25T03:47:25.734Z,31.58
2022-08-25T03:49:56.327Z,29.40
2022-08-25T03:52:31.044Z,28.15
2022-08-25T03:55:05.554Z,30.70
2022-08-25T03:57:44.251Z,27.40
2022-08-25T04:00:16.658Z,30.38
2022-08-25T04:02:51.073Z,25.33
2022-08-25T04:05:21.490Z,26.45
2022-08-25T04:07:51.900Z,31.63
2022-08-25T04:10:24.913Z,26.00
2022-08-25T04:12:56.248Z,25.70
2022-08-25T04:15:30.252Z,25.17
2022-08-25T04:18:00.491Z,27.02
2022-08-25T04:20:35.596Z,25.95
2022-08-25T04:23:08.687Z,25.00
2022-08-25T04:25:46.255Z,27.00
2022-08-25T04:28:16.054Z,26.83
2022-08-25T04:30:51.450Z,26.58
2022-08-25T04:33:24.203Z,26.00
2022-08-25T04:35:54.195Z,27.17
2022-08-25T04:38:32.396Z,29.25
2022-08-25T04:41:12.516Z,25.92
2022-08-25T04:43:49.329Z,25.25
2022-08-25T04:46:21.284Z,27.17
2022-08-25T04:48:52.844Z,27.33
2022-08-25T04:51:30.686Z,25.73
2022-08-25T04:54:09.601Z,26.45
2022-08-25T04:56:44.042Z,25.25
2022-08-25T04:59:19.027Z,26.92
2022-08-25T05:01:52.476Z,24.60
2022-08-25T05:07:02.395Z,28.98
2022-08-25T05:09:41.302Z,30.67
2022-08-25T05:12:18.236Z,27.20
2022-08-25T05:14:48.685Z,29.15
2022-08-25T05:17:19.288Z,29.10
2022-08-25T05:19:52.426Z,29.25
2022-08-25T05:22:22.340Z,32.63
2022-08-25T05:24:53.886Z,27.75
2022-08-25T05:27:39.241Z,30.77
2022-08-25T05:30:14.817Z,25.65
2022-08-25T05:32:50.020Z,28.77
2022-08-25T05:35:22.557Z,29.58
2022-08-25T05:37:52.319Z,30.70
2022-08-25T05:40:26.091Z,27.38
2022-08-25T05:42:58.977Z,28.23
2022-08-25T05:45:32.697Z,30.00
2022-08-25T05:48:07.842Z,31.17
2022-08-25T05:50:39.477Z,29.92
2022-08-25T05:53:09.328Z,30.90
2022-08-25T05:55:40.982Z,26.95
2022-08-25T05:58:13.929Z,31.13
2022-08-25T06:00:48.520Z,25.38
2022-08-25T06:03:15.841Z,28.27
2022-08-25T06:05:48.019Z,27.10
2022-08-25T06:08:20.513Z,27.50
2022-08-25T06:10:58.005Z,29.90
2022-08-25T06:13:39.406Z,28.08
2022-08-25T06:16:19.068Z,28.38
2022-08-25T06:19:04.990Z,29.27
2022-08-25T06:21:51.140Z,31.48
2022-08-25T06:24:38.978Z,28.20
2022-08-25T06:27:09.022Z,28.23
2022-08-25T06:29:44.200Z,31.50
2022-08-25T06:32:17.425Z,29.50
2022-08-25T06:34:54.790Z,30.30
2022-08-25T06:37:27.627Z,26.95
2022-08-25T06:39:58.108Z,29.00
2022-08-25T06:42:29.532Z,25.80
2022-08-25T06:45:15.894Z,27.35
2022-08-25T06:47:45.759Z,28.58
2022-08-25T06:50:16.385Z,29.05
2022-08-25T06:52:46.022Z,27.23
2022-08-25T06:55:16.218Z,26.73
2022-08-25T06:57:45.964Z,27.45
2022-08-25T07:00:19.019Z,25.05
2022-08-25T07:02:48.838Z,26.38
2022-08-25T07:05:33.613Z,26.33
2022-08-25T07:08:12.103Z,22.08
2022-08-25T07:10:42.042Z,25.27
2022-08-25T07:13:18.385Z,24.42
2022-08-25T07:15:50.894Z,26.45
2022-08-25T07:18:24.489Z,23.63
2022-08-25T07:20:54.624Z,22.73
2022-08-25T07:23:25.005Z,24.55
2022-08-25T07:25:55.662Z,21.13
2022-08-25T07:28:27.671Z,20.92
2022-08-25T07:31:07.838Z,21.35
2022-08-25T07:34:00.316Z,22.15
2022-08-25T07:36:31.299Z,24.48
2022-08-25T07:39:05.509Z,16.85
2022-08-25T07:41:42.955Z,18.35
2022-08-25T07:44:14.583Z,18.52
2022-08-25T07:46:47.207Z,19.23
2022-08-25T07:49:23.123Z,14.40
2022-08-25T07:52:05.497Z,15.75
2022-08-25T07:54:39.924Z,13.35
2022-08-25T07:57:12.867Z,14.63
2022-08-25T07:59:43.610Z,13.82
2022-08-25T08:02:18.869Z,18.25
2022-08-25T08:04:50.802Z,12.90
2022-08-25T08:07:22.821Z,13.82
2022-08-25T08:10:13.627Z,14.77
2022-08-25T08:12:45.985Z,13.87
2022-08-25T08:15:19.397Z,13.48
2022-08-25T08:17:51.992Z,12.48
2022-08-25T08:20:23.483Z,12.25
2022-08-25T08:22:56.222Z,12.30
2022-08-25T08:25:27.991Z,11.43
2022-08-25T08:27:58.974Z,15.18
2022-08-25T08:30:29.104Z,16.33
2022-08-25T08:33:12.488Z,11.38
2022-08-25T08:35:43.719Z,12.63
2022-08-25T08:38:20.738Z,10.55
2022-08-25T08:41:16.040Z,12.45
2022-08-25T08:43:46.649Z,16.15
2022-08-25T08:46:17.645Z,10.65
2022-08-25T08:49:04.580Z,12.50
2022-08-25T08:51:42.195Z,13.27
2022-08-25T08:54:20.820Z,14.55
2022-08-25T08:56:59.030Z,12.15
2022-08-25T08:59:36.879Z,11.25
2022-08-25T09:02:22.113Z,12.05
2022-08-25T09:05:15.222Z,10.45
2022-08-25T09:07:55.045Z,10.05
2022-08-25T09:10:29.419Z,9.45
2022-08-25T09:13:12.588Z,10.80
2022-08-25T09:20:04.444Z,11.25
2022-08-25T09:23:27.610Z,8.93
2022-08-25T09:34:08.400Z,13.25
2022-08-25T09:43:46.006Z,8.80
2022-08-25T09:46:24.098Z,9.68
2022-08-25T09:49:32.492Z,9.15
2022-08-25T09:52:29.825Z,12.85
2022-08-25T09:55:05.286Z,9.45
2022-08-25T09:57:46.822Z,10.40
2022-08-25T10:00:24.288Z,10.70
2022-08-25T10:03:10.957Z,12.35
2022-08-25T10:05:56.354Z,13.90
2022-08-25T10:08:35.770Z,10.32
2022-08-25T10:11:13.311Z,9.65
2022-08-25T10:13:46.839Z,8.88
2022-08-25T10:16:34.106Z,8.88
2022-08-25T10:19:11.062Z,12.50
2022-08-25T10:21:42.913Z,12.00
2022-08-25T10:24:18.980Z,9.57
2022-08-25T10:27:00.051Z,9.38
2022-08-25T10:30:04.882Z,7.50
2022-08-25T10:33:07.146Z,10.45
2022-08-25T10:35:56.565Z,9.43
2022-08-25T10:38:43.122Z,8.32
2022-08-25T10:41:39.086Z,9.63
2022-08-25T10:44:30.331Z,9.07
2022-08-25T10:47:34.599Z,9.75
2022-08-25T10:50:17.316Z,8.48
2022-08-25T10:53:13.183Z,7.63
2022-08-25T10:55:52.988Z,10.40
2022-08-25T10:58:34.573Z,9.52
2022-08-25T11:01:13.852Z,8.18
2022-08-25T11:03:52.552Z,8.75
2022-08-25T11:06:38.047Z,9.68
2022-08-25T11:09:13.784Z,9.45
2022-08-25T11:11:52.408Z,11.27
2022-08-25T11:14:25.736Z,8.35
2022-08-25T11:17:04.515Z,7.00
2022-08-25T11:19:40.795Z,8.70
2022-08-25T11:22:19.332Z,9.65
2022-08-25T11:25:05.150Z,6.88
2022-08-25T11:27:40.686Z,6.82
2022-08-25T11:30:15.661Z,12.10
2022-08-25T11:32:51.368Z,7.95
2022-08-25T11:35:29.435Z,8.85
2022-08-25T11:38:20.914Z,9.82
2022-08-25T11:41:10.945Z,9.10
2022-08-25T11:44:04.290Z,9.93
2022-08-25T11:46:57.969Z,13.70
2022-08-25T11:49:53.076Z,9.90
2022-08-25T11:52:56.696Z,9.75
2022-08-25T11:55:48.504Z,9.57
2022-08-25T11:58:34.748Z,10.32
2022-08-25T12:01:10.666Z,8.48
2022-08-25T12:03:55.092Z,9.00
2022-08-25T12:06:43.382Z,8.63
2022-08-25T12:09:22.222Z,8.10
2022-08-25T12:11:59.008Z,9.25
2022-08-25T12:14:48.140Z,9.10
2022-08-25T12:17:30.665Z,7.47
2022-08-25T12:20:05.450Z,10.02
2022-08-25T12:23:01.464Z,8.45
2022-08-25T12:25:47.318Z,10.27
2022-08-25T12:28:52.868Z,10.85
2022-08-25T12:31:41.095Z,10.00
2022-08-25T12:34:37.398Z,12.38
2022-08-25T12:37:15.074Z,7.88
2022-08-25T12:39:58.819Z,11.45
2022-08-25T12:42:38.853Z,11.38
2022-08-25T12:45:36.576Z,9.55
2022-08-25T12:48:39.085Z,9.02
2022-08-25T12:51:12.058Z,10.70
2022-08-25T12:53:50.799Z,10.15
2022-08-25T12:56:29.413Z,10.52
2022-08-25T12:59:15.223Z,11.52
2022-08-25T13:02:11.034Z,8.80
2022-08-25T13:05:06.329Z,9.70
2022-08-25T13:08:00.590Z,10.27
2022-08-25T13:10:49.567Z,7.40
2022-08-25T13:13:37.512Z,10.50
2022-08-25T13:16:12.018Z,9.75
2022-08-25T13:18:45.366Z,12.45
2022-08-25T13:21:23.473Z,11.65
2022-08-25T13:24:04.663Z,10.70
2022-08-25T13:26:48.375Z,10.48
2022-08-25T13:29:28.735Z,10.52
2022-08-25T13:32:12.878Z,12.77
2022-08-25T13:34:46.906Z,12.60
2022-08-25T13:37:36.334Z,14.75
2022-08-25T13:40:17.827Z,12.25
2022-08-25T13:42:56.095Z,10.00
2022-08-25T13:45:41.090Z,12.30
2022-08-25T13:48:22.440Z,11.85
2022-08-25T13:50:55.999Z,10.70
2022-08-25T13:53:31.735Z,14.73
2022-08-25T13:56:10.663Z,10.55
2022-08-25T13:58:54.195Z,10.00
2022-08-25T14:01:48.634Z,11.02
2022-08-25T14:04:50.724Z,10.55
2022-08-25T14:07:58.784Z,10.00
2022-08-25T14:10:43.125Z,9.35
2022-08-25T14:13:17.447Z,8.68
2022-08-25T14:15:48.862Z,10.90
2022-08-25T14:18:26.894Z,10.02
2022-08-25T14:21:02.613Z,9.57
2022-08-25T14:23:37.654Z,10.50
2022-08-25T14:26:10.566Z,9.77
2022-08-25T14:28:41.649Z,9.50
2022-08-25T14:31:16.213Z,8.32
2022-08-25T14:33:54.979Z,11.07
2022-08-25T14:36:29.002Z,10.30
2022-08-25T14:39:08.665Z,13.52
2022-08-25T14:41:41.193Z,11.07
2022-08-25T14:44:12.957Z,14.65
2022-08-25T14:46:48.488Z,11.53
2022-08-25T14:49:24.943Z,10.90
2022-08-25T14:51:56.052Z,10.52
2022-08-25T14:54:37.680Z,11.02
2022-08-25T14:57:13.006Z,14.93
2022-08-25T14:59:43.159Z,13.35
2022-08-25T15:02:19.916Z,13.63
2022-08-25T15:04:55.524Z,14.02
2022-08-25T15:07:37.944Z,17.52
2022-08-25T15:10:14.771Z,18.30
2022-08-25T15:12:47.784Z,14.75
2022-08-25T15:15:18.347Z,22.33
2022-08-25T15:17:55.093Z,23.05
2022-08-25T15:20:29.505Z,26.88
2022-08-25T15:23:00.621Z,24.27
2022-08-25T15:25:35.957Z,30.55
2022-08-25T15:28:10.103Z,29.85
2022-08-25T15:30:44.496Z,27.20
2022-08-25T15:33:15.531Z,27.73
2022-08-25T15:35:45.582Z,35.60
2022-08-25T15:38:15.555Z,31.23
2022-08-25T15:40:48.700Z,35.03
2022-08-25T15:43:18.506Z,34.22
2022-08-25T15:45:48.429Z,34.60
2022-08-25T15:48:20.855Z,38.15
2022-08-25T15:50:52.253Z,36.42
2022-08-25T15:53:22.667Z,38.53
2022-08-25T15:55:58.025Z,35.35
2022-08-25T15:58:37.507Z,39.38
2022-08-25T16:01:16.758Z,37.22
2022-08-25T16:03:49.470Z,40.80
2022-08-25T16:06:20.102Z,38.10
2022-08-25T16:08:50.847Z,39.03
2022-08-25T16:11:30.921Z,43.58
2022-08-25T16:14:02.350Z,45.28
2022-08-25T16:16:37.859Z,38.97
2022-08-25T16:19:10.654Z,47.60
2022-08-25T16:21:42.269Z,47.75
2022-08-25T16:24:17.032Z,45.33
2022-08-25T16:26:50.405Z,42.10
2022-08-25T16:29:22.846Z,44.65
2022-08-25T16:31:55.132Z,45.65
2022-08-25T16:34:28.721Z,42.55
2022-08-25T16:37:05.011Z,42.05
2022-08-25T16:39:44.226Z,37.38
2022-08-25T16:42:16.717Z,37.70
2022-08-25T16:44:46.869Z,37.37
2022-08-25T16:47:17.792Z,39.42
2022-08-25T16:49:52.274Z,31.75
2022-08-25T16:52:35.537Z,39.25
2022-08-25T16:55:17.875Z,36.20
2022-08-25T16:57:53.869Z,36.97
2022-08-25T17:00:29.604Z,43.45
2022-08-25T17:03:04.534Z,37.00
2022-08-25T17:05:38.403Z,42.15
2022-08-25T17:08:20.939Z,37.60
2022-08-25T17:10:50.825Z,39.95
2022-08-25T17:13:23.274Z,37.00
2022-08-25T17:15:53.079Z,39.13
2022-08-25T17:18:22.929Z,30.48
2022-08-25T17:21:06.780Z,33.05
2022-08-25T17:23:40.013Z,35.13
2022-08-25T17:28:48.004Z,38.17
2022-08-25T17:31:19.076Z,32.33
2022-08-25T17:33:49.398Z,33.42
2022-08-25T17:36:19.297Z,34.60
2022-08-25T17:38:50.623Z,33.10
2022-08-25T17:41:21.183Z,33.63
2022-08-25T17:43:53.747Z,28.90
2022-08-25T17:46:24.489Z,31.10
2022-08-25T17:48:57.759Z,33.25
2022-08-25T17:51:31.799Z,32.33
2022-08-25T17:54:05.270Z,30.15
2022-08-25T17:56:35.535Z,30.15
2022-08-25T17:59:08.146Z,26.88
2022-08-25T18:01:42.435Z,26.05
2022-08-25T18:04:17.908Z,23.70
2022-08-25T18:06:51.760Z,23.48
2022-08-25T18:09:21.478Z,22.10
2022-08-25T18:11:52.554Z,18.10
2022-08-25T18:14:25.791Z,22.27
2022-08-25T18:19:26.851Z,28.60
2022-08-25T18:21:56.614Z,24.02
2022-08-25T18:24:29.383Z,28.10
2022-08-25T18:27:00.160Z,27.55
2022-08-25T18:29:41.801Z,23.75
2022-08-25T18:32:13.336Z,25.65
2022-08-25T18:34:43.295Z,24.80
2022-08-25T18:37:28.750Z,26.75
2022-08-25T18:40:14.391Z,24.35
2022-08-25T18:42:44.351Z,21.38
2022-08-25T18:45:17.122Z,30.65
2022-08-25T18:47:47.583Z,24.63
2022-08-25T18:50:17.540Z,28.67
2022-08-25T18:52:49.767Z,30.73
2022-08-25T18:55:27.157Z,21.98
2022-08-25T18:58:01.493Z,21.13
2022-08-25T19:00:41.790Z,26.13
2022-08-25T19:03:14.201Z,25.63
2022-08-25T19:05:55.019Z,27.20
2022-08-25T19:08:29.713Z,23.83
2022-08-25T19:11:05.147Z,24.35
2022-08-25T19:13:41.120Z,27.95
2022-08-25T19:16:20.370Z,29.63
2022-08-25T19:18:52.273Z,28.90
2022-08-25T19:21:23.960Z,25.00
2022-08-25T19:23:54.761Z,25.83
2022-08-25T19:26:25.762Z,26.70
2022-08-25T19:29:04.718Z,24.67
2022-08-25T19:31:44.722Z,24.23
2022-08-25T19:34:21.781Z,23.95
2022-08-25T19:36:51.794Z,23.52
2022-08-25T19:39:22.036Z,36.25
2022-08-25T19:41:57.082Z,25.42
2022-08-25T19:44:28.087Z,19.45
2022-08-25T19:47:03.972Z,20.52
2022-08-25T19:49:40.221Z,18.38
2022-08-25T19:52:16.881Z,20.20
2022-08-25T19:54:48.826Z,20.67
2022-08-25T19:57:27.881Z,32.78
2022-08-25T19:59:59.003Z,20.77
2022-08-25T20:02:36.058Z,23.45
2022-08-25T20:05:08.094Z,21.88
2022-08-25T20:07:41.057Z,25.25
2022-08-25T20:10:14.574Z,17.63
2022-08-25T20:12:45.738Z,23.15
2022-08-25T20:15:17.401Z,28.15
2022-08-25T20:17:50.150Z,22.85
2022-08-25T20:20:32.459Z,17.73
2022-08-25T20:23:22.876Z,16.75
2022-08-25T20:26:00.181Z,16.05
2022-08-25T20:28:29.874Z,14.80
2022-08-25T20:31:00.322Z,14.90
2022-08-25T20:33:35.135Z,14.23
2022-08-25T20:36:06.071Z,13.57
2022-08-25T20:38:41.158Z,12.30
2022-08-25T20:41:12.874Z,12.77
2022-08-25T20:43:43.648Z,9.32
2022-08-25T20:46:14.169Z,10.00
2022-08-25T20:48:46.716Z,10.82
2022-08-25T20:51:18.443Z,9.10
2022-08-25T20:53:48.913Z,9.30
2022-08-25T20:56:21.166Z,10.68
2022-08-25T20:58:51.585Z,11.45
2022-08-25T21:01:24.009Z,10.95
2022-08-25T21:03:57.517Z,9.57
2022-08-25T21:09:01.518Z,9.07
2022-08-25T21:11:31.665Z,12.00
2022-08-25T21:14:06.055Z,11.63
2022-08-25T21:16:38.877Z,15.07
2022-08-25T21:19:12.539Z,13.55
2022-08-25T21:24:13.870Z,11.13
2022-08-25T21:26:48.435Z,11.57
2022-08-25T21:29:20.633Z,11.48
2022-08-25T21:31:51.792Z,11.35
2022-08-25T21:34:24.755Z,12.13
2022-08-25T21:36:58.329Z,9.68
2022-08-25T21:39:36.955Z,14.93
2022-08-25T21:44:40.750Z,13.57
2022-08-25T21:47:11.847Z,9.68
2022-08-25T21:49:44.798Z,13.32
2022-08-25T21:52:16.683Z,9.85
2022-08-25T21:54:47.495Z,11.70
2022-08-25T21:57:19.026Z,7.05
2022-08-25T21:59:49.399Z,9.77
2022-08-25T22:02:22.506Z,9.40
2022-08-25T22:07:26.954Z,13.97
2022-08-25T22:09:56.740Z,13.13
2022-08-25T22:12:29.592Z,6.65
2022-08-25T22:15:01.794Z,7.85
2022-08-25T22:17:31.530Z,8.52
2022-08-25T22:20:06.334Z,13.85
2022-08-25T22:22:40.424Z,7.95
2022-08-25T22:25:10.790Z,7.50
2022-08-25T22:27:40.883Z,15.35
2022-08-25T22:30:14.714Z,10.38
2022-08-25T22:32:45.439Z,8.43
2022-08-25T22:35:18.662Z,4.88
2022-08-25T22:37:49.878Z,6.70
2022-08-25T22:40:20.099Z,7.63
2022-08-25T22:42:50.644Z,15.38
2022-08-25T22:45:20.727Z,17.35
2022-08-25T22:47:52.296Z,9.48
2022-08-25T22:50:25.099Z,4.78
2022-08-25T22:52:55.690Z,8.60
2022-08-25T22:55:25.605Z,9.25
2022-08-25T22:58:01.161Z,13.93
2022-08-25T23:00:36.487Z,8.55
2022-08-25T23:03:10.145Z,10.23
2022-08-25T23:05:44.191Z,10.20
2022-08-25T23:08:15.189Z,5.22
2022-08-25T23:11:01.873Z,6.97
2022-08-25T23:13:34.108Z,11.07
2022-08-25T23:16:07.321Z,9.80
2022-08-25T23:18:43.814Z,8.23
2022-08-25T23:21:30.020Z,10.77
2022-08-25T23:24:11.141Z,9.00
2022-08-25T23:26:41.866Z,6.78
2022-08-25T23:29:18.452Z,15.02
2022-08-25T23:31:50.134Z,7.10
2022-08-25T23:34:19.970Z,8.32
2022-08-25T23:36:52.332Z,5.82
2022-08-25T23:39:22.313Z,8.60
2022-08-25T23:41:52.642Z,7.57
2022-08-25T23:44:24.431Z,9.57
2022-08-25T23:46:55.521Z,9.90
2022-08-25T23:49:30.006Z,9.43
2022-08-25T23:52:05.690Z,11.93
2022-08-25T23:54:37.754Z,16.60
2022-08-25T23:57:10.545Z,9.35
2022-08-25T23:59:40.664Z,6.72
